sensor_id;sensor_type;location;lat;lon;timestamp;temperature;humidity
31521;DHT22;69043;51.224;4.424;2023-04-10T00:00:40;12.20;99.90
31521;DHT22;69043;51.224;4.424;2023-04-10T00:03:07;12.30;99.90
31521;DHT22;69043;51.224;4.424;2023-04-10T00:05:33;12.40;99.90
31521;DHT22;69043;51.224;4.424;2023-04-10T00:07:59;12.40;99.90
31521;DHT22;69043;51.224;4.424;2023-04-10T00:10:25;12.30;99.90
31521;DHT22;69043;51.224;4.424;2023-04-10T00:12:54;12.30;99.90
31521;DHT22;69043;51.224;4.424;2023-04-10T00:15:20;12.40;99.90
31521;DHT22;69043;51.224;4.424;2023-04-10T00:17:46;12.50;99.90
31521;DHT22;69043;51.224;4.424;2023-04-10T00:20:12;12.50;99.90
31521;DHT22;69043;51.224;4.424;2023-04-10T00:22:37;12.50;99.90
31521;DHT22;69043;51.224;4.424;2023-04-10T00:25:03;12.50;99.90
31521;DHT22;69043;51.224;4.424;2023-04-10T00:27:30;12.50;99.90
31521;DHT22;69043;51.224;4.424;2023-04-10T00:29:56;12.50;99.90
31521;DHT22;69043;51.224;4.424;2023-04-10T00:32:22;12.60;99.90
31521;DHT22;69043;51.224;4.424;2023-04-10T00:34:47;12.60;99.90
31521;DHT22;69043;51.224;4.424;2023-04-10T00:37:13;12.60;99.90
31521;DHT22;69043;51.224;4.424;2023-04-10T00:39:39;12.50;99.90
31521;DHT22;69043;51.224;4.424;2023-04-10T00:42:05;12.60;99.90
31521;DHT22;69043;51.224;4.424;2023-04-10T00:44:33;12.70;99.90
31521;DHT22;69043;51.224;4.424;2023-04-10T00:47:03;12.50;99.90
31521;DHT22;69043;51.224;4.424;2023-04-10T00:49:29;12.30;99.90
31521;DHT22;69043;51.224;4.424;2023-04-10T00:51:55;12.10;99.90
31521;DHT22;69043;51.224;4.424;2023-04-10T00:54:22;12.00;99.90
31521;DHT22;69043;51.224;4.424;2023-04-10T00:56:48;12.10;99.90
31521;DHT22;69043;51.224;4.424;2023-04-10T00:59:14;11.90;99.90
31521;DHT22;69043;51.224;4.424;2023-04-10T01:01:40;11.80;99.90
31521;DHT22;69043;51.224;4.424;2023-04-10T01:04:07;11.70;99.90
31521;DHT22;69043;51.224;4.424;2023-04-10T01:06:54;11.70;99.90
31521;DHT22;69043;51.224;4.424;2023-04-10T01:12:11;11.70;99.90
31521;DHT22;69043;51.224;4.424;2023-04-10T01:15:34;11.70;99.90
31521;DHT22;69043;51.224;4.424;2023-04-10T01:18:18;11.80;99.90
31521;DHT22;69043;51.224;4.424;2023-04-10T01:20:46;11.80;99.90
31521;DHT22;69043;51.224;4.424;2023-04-10T01:24:03;11.90;99.90
31521;DHT22;69043;51.224;4.424;2023-04-10T01:26:05;11.90;99.90
31521;DHT22;69043;51.224;4.424;2023-04-10T01:31:15;11.80;99.90
31521;DHT22;69043;51.224;4.424;2023-04-10T01:33:50;11.80;99.90
31521;DHT22;69043;51.224;4.424;2023-04-10T01:36:28;11.90;99.90
31521;DHT22;69043;51.224;4.424;2023-04-10T01:38:56;11.90;99.90
31521;DHT22;69043;51.224;4.424;2023-04-10T01:41:23;11.80;99.90
31521;DHT22;69043;51.224;4.424;2023-04-10T01:43:50;11.80;99.90
31521;DHT22;69043;51.224;4.424;2023-04-10T01:46:18;11.70;99.90
31521;DHT22;69043;51.224;4.424;2023-04-10T01:48:46;11.70;99.90
31521;DHT22;69043;51.224;4.424;2023-04-10T01:51:12;11.70;99.90
31521;DHT22;69043;51.224;4.424;2023-04-10T01:53:39;11.60;99.90
31521;DHT22;69043;51.224;4.424;2023-04-10T01:56:07;11.60;99.90
31521;DHT22;69043;51.224;4.424;2023-04-10T01:58:34;11.70;99.90
31521;DHT22;69043;51.224;4.424;2023-04-10T02:01:00;11.70;99.90
31521;DHT22;69043;51.224;4.424;2023-04-10T02:03:26;11.70;99.90
31521;DHT22;69043;51.224;4.424;2023-04-10T02:08:41;11.80;99.90
31521;DHT22;69043;51.224;4.424;2023-04-10T02:13:58;11.80;99.90
31521;DHT22;69043;51.224;4.424;2023-04-10T02:16:24;11.80;99.90
31521;DHT22;69043;51.224;4.424;2023-04-10T02:18:52;11.80;99.90
31521;DHT22;69043;51.224;4.424;2023-04-10T02:21:18;11.80;99.90
31521;DHT22;69043;51.224;4.424;2023-04-10T02:23:44;12.00;99.90
31521;DHT22;69043;51.224;4.424;2023-04-10T02:26:10;11.90;99.90
31521;DHT22;69043;51.224;4.424;2023-04-10T02:28:39;12.00;99.90
31521;DHT22;69043;51.224;4.424;2023-04-10T02:31:05;11.90;99.90
31521;DHT22;69043;51.224;4.424;2023-04-10T02:33:31;11.90;99.90
31521;DHT22;69043;51.224;4.424;2023-04-10T02:35:56;11.90;99.90
31521;DHT22;69043;51.224;4.424;2023-04-10T02:38:22;11.90;99.90
31521;DHT22;69043;51.224;4.424;2023-04-10T02:40:48;11.90;99.90
31521;DHT22;69043;51.224;4.424;2023-04-10T02:43:14;11.90;99.90
31521;DHT22;69043;51.224;4.424;2023-04-10T02:45:40;11.90;99.90
31521;DHT22;69043;51.224;4.424;2023-04-10T02:48:06;11.90;99.90
31521;DHT22;69043;51.224;4.424;2023-04-10T02:50:32;11.90;99.90
31521;DHT22;69043;51.224;4.424;2023-04-10T02:52:57;11.80;99.90
31521;DHT22;69043;51.224;4.424;2023-04-10T02:55:23;11.80;99.90
31521;DHT22;69043;51.224;4.424;2023-04-10T02:57:49;11.90;99.90
31521;DHT22;69043;51.224;4.424;2023-04-10T03:00:15;11.90;99.90
31521;DHT22;69043;51.224;4.424;2023-04-10T03:02:40;11.90;99.90
31521;DHT22;69043;51.224;4.424;2023-04-10T03:05:06;11.90;99.90
31521;DHT22;69043;51.224;4.424;2023-04-10T03:07:33;11.90;99.90
31521;DHT22;69043;51.224;4.424;2023-04-10T03:09:59;11.90;99.90
31521;DHT22;69043;51.224;4.424;2023-04-10T03:12:24;11.80;99.90
31521;DHT22;69043;51.224;4.424;2023-04-10T03:14:50;11.80;99.90
31521;DHT22;69043;51.224;4.424;2023-04-10T03:17:16;11.80;99.90
31521;DHT22;69043;51.224;4.424;2023-04-10T03:19:42;11.90;99.90
31521;DHT22;69043;51.224;4.424;2023-04-10T03:22:08;11.80;99.90
31521;DHT22;69043;51.224;4.424;2023-04-10T03:24:35;11.80;99.90
31521;DHT22;69043;51.224;4.424;2023-04-10T03:27:02;11.70;99.90
31521;DHT22;69043;51.224;4.424;2023-04-10T03:29:28;11.60;99.90
31521;DHT22;69043;51.224;4.424;2023-04-10T03:31:54;11.40;99.90
31521;DHT22;69043;51.224;4.424;2023-04-10T03:34:20;11.40;99.90
31521;DHT22;69043;51.224;4.424;2023-04-10T03:36:45;11.30;99.90
31521;DHT22;69043;51.224;4.424;2023-04-10T03:39:11;11.30;99.90
31521;DHT22;69043;51.224;4.424;2023-04-10T03:41:37;11.30;99.90
31521;DHT22;69043;51.224;4.424;2023-04-10T03:44:02;11.10;99.90
31521;DHT22;69043;51.224;4.424;2023-04-10T03:46:28;11.10;99.90
31521;DHT22;69043;51.224;4.424;2023-04-10T03:48:54;11.10;99.90
31521;DHT22;69043;51.224;4.424;2023-04-10T03:51:20;11.00;99.90
31521;DHT22;69043;51.224;4.424;2023-04-10T03:53:47;11.00;99.90
31521;DHT22;69043;51.224;4.424;2023-04-10T03:56:13;10.80;99.90
31521;DHT22;69043;51.224;4.424;2023-04-10T03:58:39;10.80;99.90
31521;DHT22;69043;51.224;4.424;2023-04-10T04:01:04;10.70;99.90
31521;DHT22;69043;51.224;4.424;2023-04-10T04:03:30;10.60;99.90
31521;DHT22;69043;51.224;4.424;2023-04-10T04:05:56;10.50;99.90
31521;DHT22;69043;51.224;4.424;2023-04-10T04:08:21;10.50;99.90
31521;DHT22;69043;51.224;4.424;2023-04-10T04:10:47;10.50;99.90
31521;DHT22;69043;51.224;4.424;2023-04-10T04:13:13;10.50;99.90
31521;DHT22;69043;51.224;4.424;2023-04-10T04:15:38;10.50;99.90
31521;DHT22;69043;51.224;4.424;2023-04-10T04:18:04;10.50;99.90
31521;DHT22;69043;51.224;4.424;2023-04-10T04:20:30;10.50;99.90
31521;DHT22;69043;51.224;4.424;2023-04-10T04:22:56;10.50;99.90
31521;DHT22;69043;51.224;4.424;2023-04-10T04:25:21;10.50;99.90
31521;DHT22;69043;51.224;4.424;2023-04-10T04:27:48;10.40;99.90
31521;DHT22;69043;51.224;4.424;2023-04-10T04:30:14;10.40;99.90
31521;DHT22;69043;51.224;4.424;2023-04-10T04:32:39;10.40;99.90
31521;DHT22;69043;51.224;4.424;2023-04-10T04:35:06;10.50;99.90
31521;DHT22;69043;51.224;4.424;2023-04-10T04:37:31;10.50;99.90
31521;DHT22;69043;51.224;4.424;2023-04-10T04:39:57;10.60;99.90
31521;DHT22;69043;51.224;4.424;2023-04-10T04:42:23;10.50;99.90
31521;DHT22;69043;51.224;4.424;2023-04-10T04:44:48;10.50;99.90
31521;DHT22;69043;51.224;4.424;2023-04-10T04:47:15;10.40;99.90
31521;DHT22;69043;51.224;4.424;2023-04-10T04:49:41;10.50;99.90
31521;DHT22;69043;51.224;4.424;2023-04-10T04:52:06;10.60;99.90
31521;DHT22;69043;51.224;4.424;2023-04-10T04:54:33;10.60;99.90
31521;DHT22;69043;51.224;4.424;2023-04-10T04:56:59;10.50;99.90
31521;DHT22;69043;51.224;4.424;2023-04-10T04:59:26;10.60;99.90
31521;DHT22;69043;51.224;4.424;2023-04-10T05:01:51;10.50;99.90
31521;DHT22;69043;51.224;4.424;2023-04-10T05:04:17;10.60;99.90
31521;DHT22;69043;51.224;4.424;2023-04-10T05:06:44;10.50;99.90
31521;DHT22;69043;51.224;4.424;2023-04-10T05:09:10;10.30;99.90
31521;DHT22;69043;51.224;4.424;2023-04-10T05:11:36;10.30;99.90
31521;DHT22;69043;51.224;4.424;2023-04-10T05:14:01;10.40;99.90
31521;DHT22;69043;51.224;4.424;2023-04-10T05:16:27;10.30;99.90
31521;DHT22;69043;51.224;4.424;2023-04-10T05:18:53;10.40;99.90
31521;DHT22;69043;51.224;4.424;2023-04-10T05:21:19;10.40;99.90
31521;DHT22;69043;51.224;4.424;2023-04-10T05:23:44;10.50;99.90
31521;DHT22;69043;51.224;4.424;2023-04-10T05:26:10;10.60;99.90
31521;DHT22;69043;51.224;4.424;2023-04-10T05:28:36;10.70;99.90
31521;DHT22;69043;51.224;4.424;2023-04-10T05:31:01;10.70;99.90
31521;DHT22;69043;51.224;4.424;2023-04-10T05:33:27;10.60;99.90
31521;DHT22;69043;51.224;4.424;2023-04-10T05:35:53;10.70;99.90
31521;DHT22;69043;51.224;4.424;2023-04-10T05:38:19;10.70;99.90
31521;DHT22;69043;51.224;4.424;2023-04-10T05:40:45;10.70;99.90
31521;DHT22;69043;51.224;4.424;2023-04-10T05:43:11;10.70;99.90
31521;DHT22;69043;51.224;4.424;2023-04-10T05:45:37;10.60;99.90
31521;DHT22;69043;51.224;4.424;2023-04-10T05:48:02;10.60;99.90
31521;DHT22;69043;51.224;4.424;2023-04-10T05:50:28;10.60;99.90
31521;DHT22;69043;51.224;4.424;2023-04-10T05:52:54;10.70;99.90
31521;DHT22;69043;51.224;4.424;2023-04-10T05:55:19;10.70;99.90
31521;DHT22;69043;51.224;4.424;2023-04-10T05:57:46;10.60;99.90
31521;DHT22;69043;51.224;4.424;2023-04-10T06:00:12;10.70;99.90
31521;DHT22;69043;51.224;4.424;2023-04-10T06:02:39;10.80;99.90
31521;DHT22;69043;51.224;4.424;2023-04-10T06:05:05;10.80;99.90
31521;DHT22;69043;51.224;4.424;2023-04-10T06:07:31;10.90;99.90
31521;DHT22;69043;51.224;4.424;2023-04-10T06:09:57;10.90;99.90
31521;DHT22;69043;51.224;4.424;2023-04-10T06:12:23;10.80;99.90
31521;DHT22;69043;51.224;4.424;2023-04-10T06:14:48;10.90;99.90
31521;DHT22;69043;51.224;4.424;2023-04-10T06:17:14;10.80;99.90
31521;DHT22;69043;51.224;4.424;2023-04-10T06:19:40;10.90;99.90
31521;DHT22;69043;51.224;4.424;2023-04-10T06:22:08;10.90;99.90
31521;DHT22;69043;51.224;4.424;2023-04-10T06:24:34;10.90;99.90
31521;DHT22;69043;51.224;4.424;2023-04-10T06:27:01;11.00;99.90
31521;DHT22;69043;51.224;4.424;2023-04-10T06:29:27;11.10;99.90
31521;DHT22;69043;51.224;4.424;2023-04-10T06:31:52;11.00;99.90
31521;DHT22;69043;51.224;4.424;2023-04-10T06:34:18;11.10;99.90
31521;DHT22;69043;51.224;4.424;2023-04-10T06:36:44;11.10;99.90
31521;DHT22;69043;51.224;4.424;2023-04-10T06:39:10;11.10;99.90
31521;DHT22;69043;51.224;4.424;2023-04-10T06:41:35;11.10;99.90
31521;DHT22;69043;51.224;4.424;2023-04-10T06:44:01;11.20;99.90
31521;DHT22;69043;51.224;4.424;2023-04-10T06:46:26;11.30;99.90
31521;DHT22;69043;51.224;4.424;2023-04-10T06:48:52;11.50;99.90
31521;DHT22;69043;51.224;4.424;2023-04-10T06:51:18;11.40;99.90
31521;DHT22;69043;51.224;4.424;2023-04-10T06:53:43;11.50;99.90
31521;DHT22;69043;51.224;4.424;2023-04-10T06:56:09;11.30;99.90
31521;DHT22;69043;51.224;4.424;2023-04-10T06:58:35;11.50;99.90
31521;DHT22;69043;51.224;4.424;2023-04-10T07:01:00;11.70;99.90
31521;DHT22;69043;51.224;4.424;2023-04-10T07:03:30;11.70;99.90
31521;DHT22;69043;51.224;4.424;2023-04-10T07:05:57;11.80;99.90
31521;DHT22;69043;51.224;4.424;2023-04-10T07:08:23;11.90;99.90
31521;DHT22;69043;51.224;4.424;2023-04-10T07:10:48;12.10;99.90
31521;DHT22;69043;51.224;4.424;2023-04-10T07:13:14;12.10;99.90
31521;DHT22;69043;51.224;4.424;2023-04-10T07:15:40;12.20;99.90
31521;DHT22;69043;51.224;4.424;2023-04-10T07:18:05;12.30;99.90
31521;DHT22;69043;51.224;4.424;2023-04-10T07:20:31;12.30;99.90
31521;DHT22;69043;51.224;4.424;2023-04-10T07:22:57;12.30;99.90
31521;DHT22;69043;51.224;4.424;2023-04-10T07:25:23;12.30;99.90
31521;DHT22;69043;51.224;4.424;2023-04-10T07:27:48;12.50;99.90
31521;DHT22;69043;51.224;4.424;2023-04-10T07:30:14;12.60;99.50
31521;DHT22;69043;51.224;4.424;2023-04-10T07:32:40;12.80;99.30
31521;DHT22;69043;51.224;4.424;2023-04-10T07:35:06;12.90;99.10
31521;DHT22;69043;51.224;4.424;2023-04-10T07:37:32;13.10;99.00
31521;DHT22;69043;51.224;4.424;2023-04-10T07:39:58;13.30;98.70
31521;DHT22;69043;51.224;4.424;2023-04-10T07:42:23;13.30;98.50
31521;DHT22;69043;51.224;4.424;2023-04-10T07:44:49;13.30;98.50
31521;DHT22;69043;51.224;4.424;2023-04-10T07:47:15;13.20;98.90
31521;DHT22;69043;51.224;4.424;2023-04-10T07:49:41;13.10;98.70
31521;DHT22;69043;51.224;4.424;2023-04-10T07:52:06;13.30;98.70
31521;DHT22;69043;51.224;4.424;2023-04-10T07:54:33;13.60;98.40
31521;DHT22;69043;51.224;4.424;2023-04-10T07:56:59;13.70;97.90
31521;DHT22;69043;51.224;4.424;2023-04-10T07:59:26;13.70;97.80
31521;DHT22;69043;51.224;4.424;2023-04-10T08:01:52;13.80;98.00
31521;DHT22;69043;51.224;4.424;2023-04-10T08:04:17;13.80;97.70
31521;DHT22;69043;51.224;4.424;2023-04-10T08:06:43;13.90;97.80
31521;DHT22;69043;51.224;4.424;2023-04-10T08:09:08;14.00;97.70
31521;DHT22;69043;51.224;4.424;2023-04-10T08:11:35;14.00;97.50
31521;DHT22;69043;51.224;4.424;2023-04-10T08:14:01;14.30;97.40
31521;DHT22;69043;51.224;4.424;2023-04-10T08:16:30;14.40;97.20
31521;DHT22;69043;51.224;4.424;2023-04-10T08:18:56;14.60;97.00
31521;DHT22;69043;51.224;4.424;2023-04-10T08:21:23;14.70;96.70
31521;DHT22;69043;51.224;4.424;2023-04-10T08:23:54;14.50;96.90
31521;DHT22;69043;51.224;4.424;2023-04-10T08:26:20;14.70;96.90
31521;DHT22;69043;51.224;4.424;2023-04-10T08:28:49;14.70;96.70
31521;DHT22;69043;51.224;4.424;2023-04-10T08:31:22;14.50;97.00
31521;DHT22;69043;51.224;4.424;2023-04-10T08:33:48;14.50;97.10
31521;DHT22;69043;51.224;4.424;2023-04-10T08:36:15;14.50;96.90
31521;DHT22;69043;51.224;4.424;2023-04-10T08:38:41;14.60;97.00
31521;DHT22;69043;51.224;4.424;2023-04-10T08:41:11;14.40;97.10
31521;DHT22;69043;51.224;4.424;2023-04-10T08:43:37;14.70;97.00
31521;DHT22;69043;51.224;4.424;2023-04-10T08:46:03;14.80;96.90
31521;DHT22;69043;51.224;4.424;2023-04-10T08:48:43;14.90;96.60
31521;DHT22;69043;51.224;4.424;2023-04-10T08:51:14;14.60;97.00
31521;DHT22;69043;51.224;4.424;2023-04-10T08:53:43;14.60;97.00
31521;DHT22;69043;51.224;4.424;2023-04-10T08:56:12;14.70;97.10
31521;DHT22;69043;51.224;4.424;2023-04-10T08:58:40;14.80;96.90
31521;DHT22;69043;51.224;4.424;2023-04-10T09:01:08;14.90;96.90
31521;DHT22;69043;51.224;4.424;2023-04-10T09:03:35;14.80;96.90
31521;DHT22;69043;51.224;4.424;2023-04-10T09:06:02;14.80;96.90
31521;DHT22;69043;51.224;4.424;2023-04-10T09:08:31;14.90;97.00
31521;DHT22;69043;51.224;4.424;2023-04-10T09:10:58;14.80;97.00
31521;DHT22;69043;51.224;4.424;2023-04-10T09:13:42;15.00;97.20
31521;DHT22;69043;51.224;4.424;2023-04-10T09:16:09;15.00;97.00
31521;DHT22;69043;51.224;4.424;2023-04-10T09:18:49;15.30;96.70
31521;DHT22;69043;51.224;4.424;2023-04-10T09:21:20;15.40;96.70
31521;DHT22;69043;51.224;4.424;2023-04-10T09:23:47;15.50;96.50
31521;DHT22;69043;51.224;4.424;2023-04-10T09:26:32;15.60;96.70
31521;DHT22;69043;51.224;4.424;2023-04-10T09:29:05;15.50;96.40
31521;DHT22;69043;51.224;4.424;2023-04-10T09:31:36;15.60;96.60
31521;DHT22;69043;51.224;4.424;2023-04-10T09:34:16;15.60;96.60
31521;DHT22;69043;51.224;4.424;2023-04-10T09:36:56;15.90;96.30
31521;DHT22;69043;51.224;4.424;2023-04-10T09:39:33;15.80;96.40
31521;DHT22;69043;51.224;4.424;2023-04-10T09:41:58;15.90;96.30
31521;DHT22;69043;51.224;4.424;2023-04-10T09:49:50;16.60;95.80
31521;DHT22;69043;51.224;4.424;2023-04-10T09:52:24;16.70;95.80
31521;DHT22;69043;51.224;4.424;2023-04-10T09:55:03;16.90;95.70
31521;DHT22;69043;51.224;4.424;2023-04-10T09:57:29;17.20;95.30
31521;DHT22;69043;51.224;4.424;2023-04-10T09:59:57;17.40;95.20
31521;DHT22;69043;51.224;4.424;2023-04-10T10:02:26;17.40;95.20
31521;DHT22;69043;51.224;4.424;2023-04-10T10:04:53;17.20;95.00
31521;DHT22;69043;51.224;4.424;2023-04-10T10:07:21;17.00;95.40
31521;DHT22;69043;51.224;4.424;2023-04-10T10:09:51;17.10;95.30
31521;DHT22;69043;51.224;4.424;2023-04-10T10:12:53;17.00;95.40
31521;DHT22;69043;51.224;4.424;2023-04-10T10:18:26;17.00;95.70
31521;DHT22;69043;51.224;4.424;2023-04-10T10:20:55;17.50;95.30
31521;DHT22;69043;51.224;4.424;2023-04-10T10:23:21;17.30;95.50
31521;DHT22;69043;51.224;4.424;2023-04-10T10:25:48;17.80;95.20
31521;DHT22;69043;51.224;4.424;2023-04-10T10:28:15;18.20;94.60
31521;DHT22;69043;51.224;4.424;2023-04-10T10:30:42;18.40;94.40
31521;DHT22;69043;51.224;4.424;2023-04-10T10:33:09;18.60;93.80
31521;DHT22;69043;51.224;4.424;2023-04-10T10:35:37;18.10;94.40
31521;DHT22;69043;51.224;4.424;2023-04-10T10:38:03;18.10;94.50
31521;DHT22;69043;51.224;4.424;2023-04-10T10:40:37;18.20;94.60
31521;DHT22;69043;51.224;4.424;2023-04-10T10:43:17;17.90;94.80
31521;DHT22;69043;51.224;4.424;2023-04-10T10:46:01;18.30;94.50
31521;DHT22;69043;51.224;4.424;2023-04-10T10:48:28;18.40;94.60
31521;DHT22;69043;51.224;4.424;2023-04-10T10:50:55;18.40;94.60
31521;DHT22;69043;51.224;4.424;2023-04-10T10:58:51;18.80;94.80
31521;DHT22;69043;51.224;4.424;2023-04-10T11:01:17;19.00;94.50
31521;DHT22;69043;51.224;4.424;2023-04-10T11:03:44;18.80;94.20
31521;DHT22;69043;51.224;4.424;2023-04-10T11:06:20;19.10;94.10
31521;DHT22;69043;51.224;4.424;2023-04-10T11:08:50;18.60;94.10
31521;DHT22;69043;51.224;4.424;2023-04-10T11:19:04;18.40;94.90
31521;DHT22;69043;51.224;4.424;2023-04-10T11:21:31;18.50;95.00
31521;DHT22;69043;51.224;4.424;2023-04-10T11:26:36;18.60;94.80
31521;DHT22;69043;51.224;4.424;2023-04-10T11:31:58;18.50;94.80
31521;DHT22;69043;51.224;4.424;2023-04-10T11:34:25;18.70;94.50
31521;DHT22;69043;51.224;4.424;2023-04-10T11:36:55;18.60;94.70
31521;DHT22;69043;51.224;4.424;2023-04-10T11:39:21;18.60;94.50
31521;DHT22;69043;51.224;4.424;2023-04-10T11:41:49;18.50;94.80
31521;DHT22;69043;51.224;4.424;2023-04-10T11:44:29;18.60;94.60
31521;DHT22;69043;51.224;4.424;2023-04-10T11:46:56;18.80;94.80
31521;DHT22;69043;51.224;4.424;2023-04-10T11:49:40;18.70;94.50
31521;DHT22;69043;51.224;4.424;2023-04-10T11:52:06;18.20;95.10
31521;DHT22;69043;51.224;4.424;2023-04-10T11:54:31;18.10;95.20
31521;DHT22;69043;51.224;4.424;2023-04-10T11:57:05;18.30;94.90
31521;DHT22;69043;51.224;4.424;2023-04-10T11:59:33;18.30;94.40
31521;DHT22;69043;51.224;4.424;2023-04-10T12:02:08;18.40;94.40
31521;DHT22;69043;51.224;4.424;2023-04-10T12:04:35;18.50;94.20
31521;DHT22;69043;51.224;4.424;2023-04-10T12:07:01;18.40;94.00
31521;DHT22;69043;51.224;4.424;2023-04-10T12:09:27;18.30;94.30
31521;DHT22;69043;51.224;4.424;2023-04-10T12:12:04;18.30;94.30
31521;DHT22;69043;51.224;4.424;2023-04-10T12:14:36;18.20;94.30
31521;DHT22;69043;51.224;4.424;2023-04-10T12:17:04;18.20;94.40
31521;DHT22;69043;51.224;4.424;2023-04-10T12:19:30;18.00;94.50
31521;DHT22;69043;51.224;4.424;2023-04-10T12:21:58;17.90;94.50
31521;DHT22;69043;51.224;4.424;2023-04-10T12:24:48;18.00;94.60
31521;DHT22;69043;51.224;4.424;2023-04-10T12:27:22;17.80;95.10
31521;DHT22;69043;51.224;4.424;2023-04-10T12:29:52;17.90;95.50
31521;DHT22;69043;51.224;4.424;2023-04-10T12:32:19;17.90;95.90
31521;DHT22;69043;51.224;4.424;2023-04-10T12:34:55;17.80;96.40
31521;DHT22;69043;51.224;4.424;2023-04-10T12:37:22;17.40;97.10
31521;DHT22;69043;51.224;4.424;2023-04-10T12:39:47;17.30;98.00
31521;DHT22;69043;51.224;4.424;2023-04-10T12:42:15;17.10;98.60
31521;DHT22;69043;51.224;4.424;2023-04-10T12:44:58;16.90;99.30
31521;DHT22;69043;51.224;4.424;2023-04-10T12:47:25;16.70;99.40
31521;DHT22;69043;51.224;4.424;2023-04-10T12:50:08;16.60;99.90
31521;DHT22;69043;51.224;4.424;2023-04-10T12:52:41;16.50;99.90
31521;DHT22;69043;51.224;4.424;2023-04-10T12:55:09;16.50;99.90
31521;DHT22;69043;51.224;4.424;2023-04-10T12:57:39;16.50;99.90
31521;DHT22;69043;51.224;4.424;2023-04-10T13:00:05;16.50;99.90
31521;DHT22;69043;51.224;4.424;2023-04-10T13:02:37;16.30;99.90
31521;DHT22;69043;51.224;4.424;2023-04-10T13:05:06;16.30;99.90
31521;DHT22;69043;51.224;4.424;2023-04-10T13:07:32;16.30;99.90
31521;DHT22;69043;51.224;4.424;2023-04-10T13:09:59;16.40;99.90
31521;DHT22;69043;51.224;4.424;2023-04-10T13:12:25;16.70;99.90
31521;DHT22;69043;51.224;4.424;2023-04-10T13:14:53;16.60;99.90
31521;DHT22;69043;51.224;4.424;2023-04-10T13:17:22;16.50;99.90
31521;DHT22;69043;51.224;4.424;2023-04-10T13:19:48;16.20;99.90
31521;DHT22;69043;51.224;4.424;2023-04-10T13:22:14;16.00;99.90
31521;DHT22;69043;51.224;4.424;2023-04-10T13:24:40;16.00;99.90
31521;DHT22;69043;51.224;4.424;2023-04-10T13:27:06;15.80;99.90
31521;DHT22;69043;51.224;4.424;2023-04-10T13:29:34;15.80;99.90
31521;DHT22;69043;51.224;4.424;2023-04-10T13:32:00;15.90;99.90
31521;DHT22;69043;51.224;4.424;2023-04-10T13:34:28;15.70;99.90
31521;DHT22;69043;51.224;4.424;2023-04-10T13:36:54;15.80;99.90
31521;DHT22;69043;51.224;4.424;2023-04-10T13:39:19;15.80;99.90
31521;DHT22;69043;51.224;4.424;2023-04-10T13:41:45;15.60;99.90
31521;DHT22;69043;51.224;4.424;2023-04-10T13:44:11;15.70;99.90
31521;DHT22;69043;51.224;4.424;2023-04-10T13:46:36;15.60;99.90
31521;DHT22;69043;51.224;4.424;2023-04-10T13:49:02;15.60;99.90
31521;DHT22;69043;51.224;4.424;2023-04-10T13:51:28;15.60;99.90
31521;DHT22;69043;51.224;4.424;2023-04-10T13:53:54;15.70;99.90
31521;DHT22;69043;51.224;4.424;2023-04-10T13:56:20;15.70;99.90
31521;DHT22;69043;51.224;4.424;2023-04-10T13:58:45;15.60;99.90
31521;DHT22;69043;51.224;4.424;2023-04-10T14:01:11;15.50;99.90
31521;DHT22;69043;51.224;4.424;2023-04-10T14:03:37;15.60;99.90
31521;DHT22;69043;51.224;4.424;2023-04-10T14:06:03;15.70;99.90
31521;DHT22;69043;51.224;4.424;2023-04-10T14:08:29;15.90;99.90
31521;DHT22;69043;51.224;4.424;2023-04-10T14:10:55;16.10;99.90
31521;DHT22;69043;51.224;4.424;2023-04-10T14:13:21;16.20;99.90
31521;DHT22;69043;51.224;4.424;2023-04-10T14:15:47;16.40;99.90
31521;DHT22;69043;51.224;4.424;2023-04-10T14:18:12;16.70;99.90
31521;DHT22;69043;51.224;4.424;2023-04-10T14:20:42;16.70;99.90
31521;DHT22;69043;51.224;4.424;2023-04-10T14:23:08;16.60;99.90
31521;DHT22;69043;51.224;4.424;2023-04-10T14:25:33;16.50;99.90
31521;DHT22;69043;51.224;4.424;2023-04-10T14:27:59;16.50;99.90
31521;DHT22;69043;51.224;4.424;2023-04-10T14:30:25;16.60;99.90
31521;DHT22;69043;51.224;4.424;2023-04-10T14:32:55;16.80;99.90
31521;DHT22;69043;51.224;4.424;2023-04-10T14:35:22;17.00;99.90
31521;DHT22;69043;51.224;4.424;2023-04-10T14:37:48;16.90;99.90
31521;DHT22;69043;51.224;4.424;2023-04-10T14:40:13;17.00;99.90
31521;DHT22;69043;51.224;4.424;2023-04-10T14:42:39;17.00;99.90
31521;DHT22;69043;51.224;4.424;2023-04-10T14:45:05;16.90;99.90
31521;DHT22;69043;51.224;4.424;2023-04-10T14:47:31;16.80;99.90
31521;DHT22;69043;51.224;4.424;2023-04-10T14:49:57;16.40;99.90
31521;DHT22;69043;51.224;4.424;2023-04-10T14:52:23;16.00;99.90
31521;DHT22;69043;51.224;4.424;2023-04-10T14:54:48;15.90;99.90
31521;DHT22;69043;51.224;4.424;2023-04-10T14:57:14;15.80;99.90
31521;DHT22;69043;51.224;4.424;2023-04-10T14:59:41;15.70;99.90
31521;DHT22;69043;51.224;4.424;2023-04-10T15:02:07;15.50;99.90
31521;DHT22;69043;51.224;4.424;2023-04-10T15:04:33;15.30;99.90
31521;DHT22;69043;51.224;4.424;2023-04-10T15:06:58;15.10;99.90
31521;DHT22;69043;51.224;4.424;2023-04-10T15:09:24;15.00;99.90
31521;DHT22;69043;51.224;4.424;2023-04-10T15:11:50;15.00;99.90
31521;DHT22;69043;51.224;4.424;2023-04-10T15:14:15;14.90;99.90
31521;DHT22;69043;51.224;4.424;2023-04-10T15:16:41;15.00;99.90
31521;DHT22;69043;51.224;4.424;2023-04-10T15:19:07;15.20;99.90
31521;DHT22;69043;51.224;4.424;2023-04-10T15:21:33;15.30;99.90
31521;DHT22;69043;51.224;4.424;2023-04-10T15:23:59;15.20;99.90
31521;DHT22;69043;51.224;4.424;2023-04-10T15:26:25;14.90;99.90
31521;DHT22;69043;51.224;4.424;2023-04-10T15:28:51;14.90;99.90
31521;DHT22;69043;51.224;4.424;2023-04-10T15:31:20;14.70;99.90
31521;DHT22;69043;51.224;4.424;2023-04-10T15:33:46;14.60;99.90
31521;DHT22;69043;51.224;4.424;2023-04-10T15:36:12;14.40;99.90
31521;DHT22;69043;51.224;4.424;2023-04-10T15:38:37;14.50;99.90
31521;DHT22;69043;51.224;4.424;2023-04-10T15:41:10;14.40;99.90
31521;DHT22;69043;51.224;4.424;2023-04-10T15:43:36;14.20;99.90
31521;DHT22;69043;51.224;4.424;2023-04-10T15:46:02;14.20;99.90
31521;DHT22;69043;51.224;4.424;2023-04-10T15:48:29;14.10;99.90
31521;DHT22;69043;51.224;4.424;2023-04-10T15:50:54;14.10;99.90
31521;DHT22;69043;51.224;4.424;2023-04-10T15:53:20;14.00;99.90
31521;DHT22;69043;51.224;4.424;2023-04-10T15:55:46;14.00;99.90
31521;DHT22;69043;51.224;4.424;2023-04-10T15:58:11;13.90;99.90
31521;DHT22;69043;51.224;4.424;2023-04-10T16:00:37;13.90;99.90
31521;DHT22;69043;51.224;4.424;2023-04-10T16:03:03;13.70;99.90
31521;DHT22;69043;51.224;4.424;2023-04-10T16:05:28;13.40;99.90
31521;DHT22;69043;51.224;4.424;2023-04-10T16:07:54;13.10;99.90
31521;DHT22;69043;51.224;4.424;2023-04-10T16:10:20;13.10;99.90